Airfield :
LOGIN :

Register | Disclaimer

   EN    FR    IT 

 










Legend :    VFR   Marginal VFR   IFR   Intensive IFR   Very Intensive IFR
Visi :
Ceiling :
>= 8 km
>= 3000ft
5 to 8 km
1000 to 3000 ft
1500m to 5 km
500 to 1000 ft
800 to 1500m
200 to 500 ft
< 800m
< 200 ft
Symbols :   Thunderstorms  Fog  Heavy snow  Heavy precipitations  Wind > 20 kt
SIGMETs :     Misc.  Thunderstorms  Icing  Turbulence  Mountain Waves  Volcanic Ashes






- Airport Elevation : 659 ft
- IATA code : LYN


LFLY - Lyon Bron

CURRENT METAR :
  • 061900Z AUTO 34010KT 9999 OVC054 05/M01 Q1031 NOSIG

EXPIRED METARs :
  • 061830Z AUTO 34009KT 9999 OVC052 06/M00 Q1031 NOSIG
  • 061800Z AUTO 34008KT 9999 OVC048 06/01 Q1031 NOSIG
  • 061730Z AUTO 33009KT 9999 FEW035 SCT041 OVC048 06/01 Q1031 NOSIG
  • 061700Z AUTO 34010KT 9999 BKN033 OVC043 06/01 Q1031 NOSIG
  • 061630Z AUTO 33009KT 9999 BKN033 OVC048 06/01 Q1031 NOSIG

TAF TAF LFLY
Valid from the 06 at 18:00 until the 07 at 18:00 UTC


061700Z 0618/0718 34005KT 9999 BKN025
BECMG 0622/0624 BKN012
PROB40
TEMPO 0700/0708 OVC008
BECMG 0708/0710 NSC
ATIS : +33 4 72 15 87 96



MET'MAP, your aeronautical weather chart ! - Copyright ORBIFLY December 2007 - Disclaimer

ORBIFLY MET'MAP TEAM :

Programming & Development : Alexandra Zaïnal
Original concept : Baudouin d'Aumeries
Technical & hardware support : Manuel Goepfert
Assistance : Marc-Olivier Méhu




SOURCES & CREDITS :

   NOAA